Terminal Aerodrome Forecast
Issued by NWS

Home | Current Version | Previous Version | Text Only | Print | Product List | Glossary On
Versions: 1 2 3 4 5 6 7 8 9 10 11 12 13 14 15 16 17 18 19 20 21 22 23 24 25 26 27 28 29 30 31 32
000
FTUS41 KBOX 020540
TAFBAF
TAF
KBAF 020540Z 0206/0306 VRB03KT P6SM BKN050
     FM021300 29007KT P6SM BKN045
     FM021500 30012G29KT P6SM BKN040
     FM022100 31015G35KT P6SM SCT250
     FM022300 31012G24KT P6SM SCT250
     FM030200 31010KT P6SM SCT250
     FM030500 31006KT P6SM FEW250=

USA.gov is the U.S. government's official web portal to all federal, state and local government web resources and services.